Time;durP1;ratioP1;P1;durP2;ratioP2;P2;SDS_P1;SDS_P2;PMS_P1;PMS_P2;Temp;Humidity;BMP_temperature;BMP_pressure;BME280_temperature;BME280_humidity;BME280_pressure;Samples;Min_cycle;Max_cycle;Signal;HPM_P1;HPM_P2
2023/05/26 00:01:48;;;;;;;26.07;4.43;;;10.00;99.90;;;;;;5104915;28;20192;-48
2023/05/26 00:04:16;;;;;;;14.63;3.73;;;10.00;99.90;;;;;;5100125;28;20213;-51
2023/05/26 00:06:44;;;;;;;15.60;4.10;;;9.90;99.90;;;;;;5089834;28;20216;-55
2023/05/26 00:09:12;;;;;;;12.90;3.80;;;9.90;99.90;;;;;;5093698;28;20192;-52
2023/05/26 00:11:39;;;;;;;15.60;4.30;;;9.80;99.90;;;;;;5104880;28;20194;-51
2023/05/26 00:14:08;;;;;;;16.13;4.30;;;9.80;99.90;;;;;;5080763;28;20231;-53
2023/05/26 00:16:36;;;;;;;18.53;3.80;;;9.80;99.90;;;;;;5102621;28;20659;-52
2023/05/26 00:19:05;;;;;;;23.20;4.30;;;9.70;99.90;;;;;;5093637;28;20217;-54
2023/05/26 00:21:32;;;;;;;13.33;3.90;;;9.70;99.90;;;;;;5094633;28;20246;-52
2023/05/26 00:23:59;;;;;;;13.67;3.77;;;9.70;99.90;;;;;;5086678;28;20217;-52
2023/05/26 00:26:26;;;;;;;14.03;3.87;;;9.60;99.90;;;;;;5090242;28;20247;-56
2023/05/26 00:28:54;;;;;;;17.10;3.67;;;9.60;99.90;;;;;;5081825;28;20194;-49
2023/05/26 00:31:20;;;;;;;20.00;4.37;;;9.60;99.90;;;;;;5101196;28;20284;-54
2023/05/26 00:33:49;;;;;;;14.27;3.33;;;9.50;99.90;;;;;;5100838;28;20296;-56
2023/05/26 00:36:15;;;;;;;14.20;4.73;;;9.50;99.90;;;;;;5092539;28;20213;-55
2023/05/26 00:38:43;;;;;;;15.70;4.07;;;9.50;99.90;;;;;;5095356;28;20638;-54
2023/05/26 00:41:10;;;;;;;17.23;4.33;;;9.40;99.90;;;;;;5100770;28;20201;-54
2023/05/26 00:43:37;;;;;;;17.03;4.33;;;9.30;99.90;;;;;;5082124;28;20205;-53
2023/05/26 00:46:04;;;;;;;16.43;4.13;;;9.30;99.90;;;;;;5101300;28;20268;-53
2023/05/26 00:48:31;;;;;;;12.17;3.80;;;9.20;99.90;;;;;;5096708;28;20197;-54
2023/05/26 00:51:00;;;;;;;14.30;4.20;;;9.10;99.90;;;;;;5095535;28;20238;-54
2023/05/26 00:53:26;;;;;;;18.03;3.53;;;9.10;99.90;;;;;;5095209;28;20201;-50
2023/05/26 00:56:16;;;;;;;17.30;4.40;;;9.00;99.90;;;;;;5100571;28;20199;-53
2023/05/26 00:58:44;;;;;;;18.53;4.37;;;9.00;99.90;;;;;;5103394;28;20251;-52
2023/05/26 01:01:10;;;;;;;15.37;3.93;;;9.00;99.90;;;;;;5075678;28;20201;-51
2023/05/26 01:03:38;;;;;;;21.83;5.13;;;8.90;99.90;;;;;;5095779;28;20276;-53
2023/05/26 01:06:07;;;;;;;18.83;4.47;;;8.80;99.90;;;;;;5114213;27;20196;-54
2023/05/26 01:08:34;;;;;;;15.17;4.90;;;8.80;99.90;;;;;;5103213;28;20189;-51
2023/05/26 01:11:06;;;;;;;17.80;4.67;;;8.80;99.90;;;;;;5079667;28;20202;-53
2023/05/26 01:13:46;;;;;;;19.57;4.40;;;8.70;99.90;;;;;;5086656;28;20203;-51
2023/05/26 01:16:16;;;;;;;23.93;4.20;;;8.80;99.90;;;;;;5077370;28;20212;-51
2023/05/26 01:18:52;;;;;;;19.50;4.13;;;8.60;99.90;;;;;;5094294;28;20702;-53
2023/05/26 01:21:27;;;;;;;12.53;3.40;;;8.60;99.90;;;;;;5101743;28;20205;-49
2023/05/26 01:24:12;;;;;;;16.37;4.03;;;8.50;99.90;;;;;;5096225;28;20966;-49
2023/05/26 01:26:58;;;;;;;19.33;4.43;;;8.50;99.90;;;;;;5087854;28;20198;-53
2023/05/26 01:29:29;;;;;;;15.37;4.10;;;8.50;99.90;;;;;;5095414;28;20182;-52
2023/05/26 01:32:07;;;;;;;15.50;4.13;;;8.50;99.90;;;;;;5075882;28;20262;-52
2023/05/26 01:34:34;;;;;;;13.43;3.90;;;8.50;99.90;;;;;;5100181;28;20213;-54
2023/05/26 01:37:02;;;;;;;16.80;3.70;;;8.50;99.90;;;;;;5099678;28;20193;-51
2023/05/26 01:39:30;;;;;;;16.33;4.60;;;8.50;99.90;;;;;;5103227;28;20292;-53
2023/05/26 01:42:07;;;;;;;15.73;4.07;;;8.40;99.90;;;;;;5082893;28;20204;-51
2023/05/26 01:44:41;;;;;;;12.93;4.13;;;8.30;99.90;;;;;;5091398;28;20321;-55
2023/05/26 01:47:09;;;;;;;18.87;4.17;;;8.30;99.90;;;;;;5078732;28;20209;-49
2023/05/26 01:49:38;;;;;;;22.87;4.47;;;8.20;99.90;;;;;;5100258;28;20193;-56
2023/05/26 01:52:09;;;;;;;19.33;3.97;;;8.20;99.90;;;;;;5099516;28;20214;-53
2023/05/26 01:54:42;;;;;;;14.77;4.27;;;8.20;99.90;;;;;;5101840;28;20699;-54
2023/05/26 01:57:11;;;;;;;15.60;4.87;;;8.10;99.90;;;;;;5090983;28;20210;-53
2023/05/26 01:59:59;;;;;;;16.90;3.93;;;8.10;99.90;;;;;;5088009;28;20323;-49
2023/05/26 02:02:26;;;;;;;15.87;4.07;;;8.00;99.90;;;;;;5074255;28;20258;-51
2023/05/26 02:04:53;;;;;;;12.17;3.63;;;8.00;99.90;;;;;;5098673;28;20205;-49
2023/05/26 02:07:20;;;;;;;14.37;4.23;;;7.90;99.90;;;;;;5101450;28;20189;-52
2023/05/26 02:09:47;;;;;;;16.33;3.70;;;7.90;99.90;;;;;;5090054;28;20655;-52
2023/05/26 02:12:14;;;;;;;16.27;4.07;;;8.00;99.90;;;;;;5084795;28;20201;-51
2023/05/26 02:14:41;;;;;;;18.00;3.67;;;8.00;99.90;;;;;;5088342;28;20300;-51
2023/05/26 02:17:10;;;;;;;24.30;3.87;;;8.00;99.90;;;;;;5079772;28;20218;-49
2023/05/26 02:19:38;;;;;;;20.80;4.10;;;7.90;99.90;;;;;;5099521;28;20687;-51
2023/05/26 02:22:26;;;;;;;17.60;3.97;;;7.90;99.90;;;;;;5082517;28;20220;-53
2023/05/26 02:24:53;;;;;;;21.00;4.13;;;7.80;99.90;;;;;;5080884;28;20201;-52
2023/05/26 02:27:20;;;;;;;9.10;3.80;;;7.80;99.90;;;;;;5097533;28;20190;-50
2023/05/26 02:29:47;;;;;;;15.50;4.20;;;7.80;99.90;;;;;;5087987;28;20210;-53
2023/05/26 02:32:15;;;;;;;16.00;4.37;;;7.70;99.90;;;;;;5106625;28;20189;-50
2023/05/26 02:34:42;;;;;;;19.53;4.57;;;7.70;99.90;;;;;;5083491;27;20232;-53
2023/05/26 02:37:09;;;;;;;20.23;4.23;;;7.70;99.90;;;;;;5103358;28;20193;-51
2023/05/26 02:39:36;;;;;;;15.57;4.60;;;7.70;99.90;;;;;;5092922;28;20224;-53
2023/05/26 02:42:03;;;;;;;16.00;3.90;;;7.70;99.90;;;;;;5093931;28;20186;-51
2023/05/26 02:44:31;;;;;;;18.67;4.13;;;7.70;99.90;;;;;;5092010;28;20225;-52
2023/05/26 02:46:58;;;;;;;17.50;4.17;;;7.70;99.90;;;;;;5096196;28;20197;-50
2023/05/26 02:49:26;;;;;;;21.10;4.10;;;7.70;99.90;;;;;;5084720;28;20307;-49
2023/05/26 02:51:54;;;;;;;17.00;3.53;;;7.70;99.90;;;;;;5097722;28;20959;-50
2023/05/26 02:54:20;;;;;;;14.13;3.40;;;7.70;99.90;;;;;;5096494;28;20216;-54
2023/05/26 02:56:47;;;;;;;16.33;3.60;;;7.70;99.90;;;;;;5087085;27;20310;-53
2023/05/26 02:59:14;;;;;;;11.30;3.47;;;7.70;99.90;;;;;;5096889;28;20292;-56
2023/05/26 03:01:41;;;;;;;18.13;4.37;;;7.60;99.90;;;;;;5103685;28;20190;-54
2023/05/26 03:04:08;;;;;;;17.93;4.23;;;7.60;99.90;;;;;;5101800;28;20231;-53
2023/05/26 03:06:37;;;;;;;17.70;4.13;;;7.50;99.90;;;;;;5077186;28;20217;-52
2023/05/26 03:09:05;;;;;;;17.77;4.73;;;7.60;99.90;;;;;;5097101;28;20192;-50
2023/05/26 03:11:32;;;;;;;17.70;3.47;;;7.60;99.90;;;;;;5096894;28;20198;-51
2023/05/26 03:14:00;;;;;;;20.80;4.60;;;7.50;99.90;;;;;;5097747;28;20221;-50
2023/05/26 03:16:28;;;;;;;20.73;3.80;;;7.50;99.90;;;;;;5095781;28;20213;-56
2023/05/26 03:18:56;;;;;;;20.27;4.70;;;7.50;99.90;;;;;;5101808;28;20297;-52
2023/05/26 03:21:23;;;;;;;18.67;4.37;;;7.40;99.90;;;;;;5076488;28;20209;-53
2023/05/26 03:23:52;;;;;;;18.00;3.97;;;7.50;99.90;;;;;;5094775;28;20200;-54
2023/05/26 03:26:20;;;;;;;16.03;4.60;;;7.40;99.90;;;;;;5095162;28;20197;-53
2023/05/26 03:28:47;;;;;;;20.47;3.97;;;7.40;99.90;;;;;;5090649;28;20239;-53
2023/05/26 03:31:14;;;;;;;16.80;3.70;;;7.40;99.90;;;;;;5098421;28;20210;-49
2023/05/26 03:33:44;;;;;;;18.83;3.83;;;7.40;99.90;;;;;;5096196;28;20690;-55
2023/05/26 03:36:13;;;;;;;18.60;4.83;;;7.50;99.90;;;;;;5075318;28;20197;-50
2023/05/26 03:38:40;;;;;;;14.17;3.50;;;7.50;99.90;;;;;;5100176;28;20582;-51
2023/05/26 03:41:09;;;;;;;17.73;3.60;;;7.50;99.90;;;;;;5104068;28;20192;-50
2023/05/26 03:43:45;;;;;;;13.13;3.40;;;7.40;99.90;;;;;;5090062;28;20213;-55
2023/05/26 03:46:12;;;;;;;21.00;3.60;;;7.40;99.90;;;;;;5096217;28;20231;-52
2023/05/26 03:48:39;;;;;;;13.50;4.33;;;7.40;99.90;;;;;;5096213;28;20232;-53
2023/05/26 03:51:06;;;;;;;16.20;4.23;;;7.40;99.90;;;;;;5098195;28;20246;-52
2023/05/26 03:53:33;;;;;;;17.70;4.13;;;7.30;99.90;;;;;;5073906;28;20558;-54
2023/05/26 03:56:01;;;;;;;23.70;4.80;;;7.30;99.90;;;;;;5101717;28;20193;-51
2023/05/26 03:58:29;;;;;;;14.07;3.50;;;7.20;99.90;;;;;;5095418;28;20215;-54
2023/05/26 04:01:19;;;;;;;20.87;4.57;;;7.20;99.90;;;;;;5091030;28;20308;-51
2023/05/26 04:03:47;;;;;;;18.33;4.07;;;7.30;99.90;;;;;;5077359;28;20670;-52
2023/05/26 04:06:13;;;;;;;14.33;3.97;;;7.30;99.90;;;;;;5101012;28;20561;-52
2023/05/26 04:08:40;;;;;;;18.60;4.10;;;7.30;99.90;;;;;;5080592;28;20201;-54
2023/05/26 04:11:07;;;;;;;12.57;3.60;;;7.20;99.90;;;;;;5103354;28;20958;-54
2023/05/26 04:13:39;;;;;;;12.93;3.43;;;7.10;99.90;;;;;;5099855;28;20209;-53
2023/05/26 04:16:28;;;;;;;21.27;4.20;;;7.10;99.90;;;;;;5079432;28;20208;-52
2023/05/26 04:18:57;;;;;;;22.27;4.20;;;7.20;99.90;;;;;;5078505;28;20202;-55
2023/05/26 04:21:24;;;;;;;15.57;4.20;;;7.20;99.90;;;;;;5101925;28;20705;-54
2023/05/26 04:23:52;;;;;;;18.70;4.00;;;7.20;99.90;;;;;;5078515;28;20197;-50
2023/05/26 04:26:21;;;;;;;19.83;3.90;;;7.20;99.90;;;;;;5102942;28;20272;-52
2023/05/26 04:29:11;;;;;;;18.30;4.83;;;7.30;99.90;;;;;;5098138;28;20182;-53
2023/05/26 04:32:00;;;;;;;18.80;4.73;;;7.30;99.90;;;;;;5078625;28;20236;-55
2023/05/26 04:34:44;;;;;;;21.00;4.63;;;7.20;99.90;;;;;;5091017;28;20225;-55
2023/05/26 04:37:16;;;;;;;21.47;4.20;;;7.30;99.90;;;;;;5079194;28;20243;-54
2023/05/26 04:39:44;;;;;;;16.57;4.67;;;7.30;99.90;;;;;;5072509;28;20306;-55
2023/05/26 04:42:12;;;;;;;18.40;4.30;;;7.40;99.90;;;;;;5101441;28;20197;-54
2023/05/26 04:44:43;;;;;;;20.37;4.43;;;7.40;99.90;;;;;;5091084;28;20300;-53
2023/05/26 04:47:10;;;;;;;17.50;4.10;;;7.40;99.90;;;;;;5088883;28;20213;-49
2023/05/26 04:49:37;;;;;;;14.73;4.00;;;7.40;99.90;;;;;;5087982;28;20256;-54
2023/05/26 04:52:04;;;;;;;15.27;4.43;;;7.40;99.90;;;;;;5102519;28;20199;-52
2023/05/26 04:54:34;;;;;;;14.47;3.63;;;7.40;99.90;;;;;;5081751;28;20213;-54
2023/05/26 04:57:02;;;;;;;21.37;4.57;;;7.40;99.90;;;;;;5092917;28;20223;-52
2023/05/26 04:59:45;;;;;;;14.63;4.03;;;7.50;99.90;;;;;;5088402;28;20213;-55
2023/05/26 05:02:12;;;;;;;20.97;4.43;;;7.50;99.90;;;;;;5076576;28;20284;-55
2023/05/26 05:04:53;;;;;;;16.57;5.13;;;7.50;99.90;;;;;;5081229;28;20238;-51
2023/05/26 05:07:20;;;;;;;16.13;4.67;;;7.60;99.90;;;;;;5081643;28;20202;-50
2023/05/26 05:09:47;;;;;;;26.67;5.97;;;7.60;99.90;;;;;;5063865;28;20208;-52
2023/05/26 05:12:15;;;;;;;16.70;4.27;;;7.70;99.90;;;;;;5087686;28;20692;-54
2023/05/26 05:14:43;;;;;;;27.97;6.33;;;7.70;99.90;;;;;;5086391;28;20217;-52
2023/05/26 05:17:12;;;;;;;24.03;4.50;;;7.70;99.90;;;;;;5086650;28;20257;-51
2023/05/26 05:19:40;;;;;;;14.10;4.10;;;7.80;99.90;;;;;;5093060;28;20209;-54
2023/05/26 05:22:06;;;;;;;21.20;4.23;;;7.90;99.90;;;;;;5086722;28;20210;-53
2023/05/26 05:24:33;;;;;;;18.90;4.63;;;7.90;99.90;;;;;;5091394;28;20224;-51
2023/05/26 05:27:01;;;;;;;20.33;5.03;;;8.00;99.90;;;;;;5068933;28;20239;-53
2023/05/26 05:29:28;;;;;;;23.60;4.70;;;8.10;99.90;;;;;;5097361;28;20903;-56
2023/05/26 05:31:59;;;;;;;24.30;5.13;;;8.10;99.90;;;;;;5098791;28;20304;-55
2023/05/26 05:34:36;;;;;;;18.80;5.57;;;8.20;99.90;;;;;;5088049;28;20210;-53
2023/05/26 05:37:04;;;;;;;24.17;4.70;;;8.30;99.90;;;;;;5099700;28;20194;-55
2023/05/26 05:39:31;;;;;;;22.83;5.20;;;8.40;99.90;;;;;;5086541;28;20217;-54
2023/05/26 05:41:58;;;;;;;26.13;5.63;;;8.40;99.90;;;;;;5067857;28;20296;-53
2023/05/26 05:44:26;;;;;;;19.13;4.27;;;8.50;99.90;;;;;;5097667;28;20209;-51
2023/05/26 05:46:53;;;;;;;26.93;4.10;;;8.60;99.90;;;;;;5101418;28;20209;-55
2023/05/26 05:49:25;;;;;;;17.03;4.63;;;8.70;99.90;;;;;;5081356;28;20213;-52
2023/05/26 05:51:55;;;;;;;18.90;4.07;;;8.70;99.90;;;;;;5098170;28;20710;-54
2023/05/26 05:54:22;;;;;;;15.80;3.90;;;8.80;99.90;;;;;;5082916;28;21107;-52
2023/05/26 05:56:49;;;;;;;15.17;4.37;;;8.90;99.90;;;;;;5080491;28;20513;-50
2023/05/26 05:59:21;;;;;;;19.43;4.60;;;8.90;99.90;;;;;;5095057;28;20229;-50
2023/05/26 06:01:48;;;;;;;16.77;3.83;;;9.00;99.90;;;;;;5098803;28;20181;-54
2023/05/26 06:04:37;;;;;;;18.43;4.73;;;9.10;99.90;;;;;;5074126;28;20712;-55
2023/05/26 06:07:06;;;;;;;15.97;4.27;;;9.30;99.90;;;;;;5097719;28;20269;-53
2023/05/26 06:09:34;;;;;;;23.10;5.07;;;9.30;99.90;;;;;;5086088;28;20189;-56
2023/05/26 06:12:02;;;;;;;18.10;4.30;;;9.40;99.90;;;;;;5071046;28;20216;-51
2023/05/26 06:14:31;;;;;;;15.67;3.93;;;9.50;99.90;;;;;;5099304;28;20210;-55
2023/05/26 06:16:57;;;;;;;19.47;5.03;;;9.50;99.90;;;;;;5090009;28;20236;-50
2023/05/26 06:19:27;;;;;;;13.63;3.70;;;9.60;99.90;;;;;;5091840;28;20310;-54
2023/05/26 06:21:54;;;;;;;18.27;3.87;;;9.70;99.90;;;;;;5097096;27;21764;-53
2023/05/26 06:24:23;;;;;;;19.07;3.47;;;9.80;99.90;;;;;;5086678;28;20218;-47
2023/05/26 06:26:50;;;;;;;20.73;3.73;;;9.80;99.90;;;;;;5092446;28;20209;-51
2023/05/26 06:29:18;;;;;;;15.93;4.00;;;9.90;99.90;;;;;;5079461;28;20312;-48
2023/05/26 06:31:46;;;;;;;17.27;3.90;;;10.00;99.90;;;;;;5101937;28;20197;-51
2023/05/26 06:34:19;;;;;;;14.03;3.63;;;10.00;99.90;;;;;;5091742;28;20329;-53
2023/05/26 06:36:47;;;;;;;13.60;3.30;;;10.10;99.90;;;;;;5085105;28;20205;-52
2023/05/26 06:39:13;;;;;;;17.43;4.17;;;10.20;99.90;;;;;;5093399;27;20679;-54
2023/05/26 06:41:42;;;;;;;17.40;3.83;;;10.30;99.90;;;;;;5083376;27;20189;-48
2023/05/26 06:44:10;;;;;;;14.77;3.97;;;10.30;99.90;;;;;;5078093;28;20224;-53
2023/05/26 06:46:56;;;;;;;14.70;3.60;;;10.40;99.90;;;;;;5092179;28;20347;-50
2023/05/26 06:49:33;;;;;;;13.10;3.37;;;10.50;99.90;;;;;;5101819;27;20209;-56
2023/05/26 06:52:07;;;;;;;18.37;4.07;;;10.50;99.90;;;;;;5091239;28;20195;-48
2023/05/26 06:54:34;;;;;;;14.67;3.50;;;10.60;99.90;;;;;;5095027;28;20308;-51
2023/05/26 06:57:03;;;;;;;14.53;3.87;;;10.60;99.90;;;;;;5079453;28;20209;-52
2023/05/26 06:59:30;;;;;;;13.40;4.00;;;10.70;99.90;;;;;;5083372;28;20220;-48
2023/05/26 07:01:59;;;;;;;11.87;2.57;;;10.80;99.90;;;;;;5093296;28;20186;-52
2023/05/26 07:04:25;;;;;;;14.43;3.37;;;10.90;99.90;;;;;;5093981;28;20588;-53
2023/05/26 07:06:53;;;;;;;15.90;3.33;;;11.00;99.90;;;;;;5084391;28;20194;-53
2023/05/26 07:09:22;;;;;;;10.40;2.50;;;11.00;99.90;;;;;;5100404;28;20234;-52
2023/05/26 07:11:53;;;;;;;10.43;3.53;;;11.10;99.90;;;;;;5088203;28;20262;-49
2023/05/26 07:14:46;;;;;;;10.87;3.10;;;11.20;99.90;;;;;;5074910;28;20228;-53
2023/05/26 07:17:15;;;;;;;10.70;2.97;;;11.30;99.90;;;;;;5087839;28;20193;-53
2023/05/26 07:19:44;;;;;;;9.57;2.90;;;11.30;99.90;;;;;;5088493;28;20240;-54
2023/05/26 07:22:11;;;;;;;8.47;2.67;;;11.40;99.90;;;;;;5092755;28;20198;-49
2023/05/26 07:24:48;;;;;;;16.23;3.70;;;11.40;99.90;;;;;;5076299;28;20690;-52
2023/05/26 07:27:24;;;;;;;11.83;3.43;;;11.40;99.90;;;;;;5095782;28;20670;-51
2023/05/26 07:29:53;;;;;;;19.13;3.50;;;11.40;99.90;;;;;;5068628;28;20213;-52
2023/05/26 07:32:20;;;;;;;10.97;3.57;;;11.40;99.90;;;;;;5095412;28;20194;-56
2023/05/26 07:34:47;;;;;;;13.97;3.10;;;11.50;99.90;;;;;;5100776;28;20309;-54
2023/05/26 07:37:14;;;;;;;14.10;3.70;;;11.60;99.90;;;;;;5102328;28;20193;-52
2023/05/26 07:39:42;;;;;;;16.20;2.93;;;11.70;99.90;;;;;;5087717;28;20270;-54
2023/05/26 07:42:09;;;;;;;10.73;3.20;;;11.60;99.90;;;;;;5100906;28;20193;-51
2023/05/26 07:44:35;;;;;;;10.67;3.50;;;11.70;99.90;;;;;;5075535;28;20328;-53
2023/05/26 07:47:03;;;;;;;10.07;3.10;;;11.70;99.90;;;;;;5097760;28;20208;-51
2023/05/26 07:49:30;;;;;;;14.07;3.10;;;11.70;99.90;;;;;;5104778;28;20302;-53
2023/05/26 07:51:57;;;;;;;5.77;2.90;;;11.70;99.90;;;;;;5100812;28;20193;-51
2023/05/26 07:54:24;;;;;;;16.20;3.27;;;11.90;99.90;;;;;;5095953;28;20236;-53
2023/05/26 07:56:52;;;;;;;15.33;4.70;;;12.10;99.90;;;;;;5097198;28;20182;-52
2023/05/26 07:59:19;;;;;;;14.17;3.73;;;12.10;99.90;;;;;;5077855;28;20198;-54
2023/05/26 08:01:46;;;;;;;12.93;3.80;;;12.10;99.90;;;;;;5101673;28;20190;-54
2023/05/26 08:04:14;;;;;;;14.70;3.77;;;12.10;99.90;;;;;;5103475;28;20200;-54
2023/05/26 08:06:41;;;;;;;15.57;3.30;;;12.10;99.90;;;;;;5102986;28;20197;-53
2023/05/26 08:09:10;;;;;;;15.47;3.20;;;12.10;99.90;;;;;;5093192;28;20274;-52
2023/05/26 08:11:38;;;;;;;11.40;3.03;;;12.20;99.90;;;;;;5096482;28;20229;-53
2023/05/26 08:14:04;;;;;;;12.23;2.97;;;12.40;99.90;;;;;;5075222;28;25824;-51
2023/05/26 08:16:31;;;;;;;9.73;2.80;;;12.50;99.90;;;;;;5096269;28;20220;-52
2023/05/26 08:18:59;;;;;;;9.90;3.00;;;12.60;99.90;;;;;;5100320;28;20187;-51
2023/05/26 08:21:27;;;;;;;14.57;3.23;;;12.60;99.90;;;;;;5104299;28;20827;-51
2023/05/26 08:23:53;;;;;;;16.93;4.07;;;12.40;99.90;;;;;;5098478;28;20186;-52
2023/05/26 08:26:20;;;;;;;12.77;3.67;;;12.50;99.90;;;;;;5086908;27;20201;-53
2023/05/26 08:28:47;;;;;;;13.37;3.43;;;12.60;99.90;;;;;;5086239;28;20201;-53
2023/05/26 08:31:15;;;;;;;11.37;3.00;;;12.80;99.90;;;;;;5098989;28;20189;-53
2023/05/26 08:33:41;;;;;;;19.03;3.67;;;12.90;99.90;;;;;;5102641;28;20189;-51
2023/05/26 08:36:09;;;;;;;13.73;3.90;;;12.90;99.90;;;;;;5093469;28;21927;-53
2023/05/26 08:38:37;;;;;;;12.10;3.07;;;13.00;99.90;;;;;;5098254;28;20185;-54
2023/05/26 08:41:05;;;;;;;12.57;3.17;;;13.00;99.90;;;;;;5085157;28;20232;-56
2023/05/26 08:43:38;;;;;;;14.27;3.97;;;13.00;99.90;;;;;;5103203;28;20193;-52
2023/05/26 08:46:06;;;;;;;14.83;4.07;;;13.10;99.90;;;;;;5081156;28;20885;-51
2023/05/26 08:48:34;;;;;;;11.53;4.20;;;13.00;99.90;;;;;;5103409;28;20227;-50
2023/05/26 08:51:01;;;;;;;17.23;4.00;;;13.10;99.90;;;;;;5099945;28;20201;-50
2023/05/26 08:53:31;;;;;;;12.13;3.67;;;13.30;99.90;;;;;;5095889;28;20204;-54
2023/05/26 08:56:00;;;;;;;13.03;4.80;;;13.40;99.90;;;;;;5095614;28;20919;-53
2023/05/26 08:58:28;;;;;;;12.40;2.90;;;13.60;99.90;;;;;;5094761;28;20687;-52
2023/05/26 09:00:56;;;;;;;16.17;3.23;;;13.60;99.90;;;;;;5079818;28;20379;-50
2023/05/26 09:03:23;;;;;;;13.23;3.43;;;13.60;99.90;;;;;;5103497;28;20190;-52
2023/05/26 09:05:50;;;;;;;11.20;3.40;;;13.40;99.90;;;;;;5097043;28;20292;-51
2023/05/26 09:08:17;;;;;;;17.13;4.33;;;13.50;99.90;;;;;;5093290;28;20201;-54
2023/05/26 09:10:44;;;;;;;10.13;3.10;;;13.50;99.90;;;;;;5098983;28;20791;-50
2023/05/26 09:13:14;;;;;;;10.13;2.70;;;13.50;99.90;;;;;;5092908;28;20867;-54
2023/05/26 09:15:41;;;;;;;11.60;3.10;;;13.60;99.90;;;;;;5094481;28;20239;-54
2023/05/26 09:18:10;;;;;;;15.93;3.50;;;13.60;99.90;;;;;;5082965;28;20293;-50
2023/05/26 09:20:40;;;;;;;7.30;3.07;;;13.70;99.90;;;;;;5096695;28;20205;-50
2023/05/26 09:23:08;;;;;;;12.40;3.47;;;13.90;99.90;;;;;;5095166;28;20844;-50
2023/05/26 09:25:36;;;;;;;10.27;2.83;;;14.10;99.90;;;;;;5101995;28;20224;-53
2023/05/26 09:28:04;;;;;;;12.33;3.10;;;14.10;99.90;;;;;;5090994;28;22786;-48
2023/05/26 09:30:37;;;;;;;10.93;3.40;;;14.20;99.90;;;;;;5103117;28;20589;-51
2023/05/26 09:33:05;;;;;;;9.33;2.80;;;14.30;99.90;;;;;;5079241;28;20225;-48
2023/05/26 09:35:37;;;;;;;11.10;3.20;;;14.30;99.90;;;;;;5098859;28;20771;-54
2023/05/26 09:38:05;;;;;;;15.27;3.33;;;14.30;99.90;;;;;;5100829;28;20193;-50
2023/05/26 09:40:32;;;;;;;11.47;3.10;;;14.40;99.90;;;;;;5099507;28;20245;-48
2023/05/26 09:43:00;;;;;;;13.43;3.97;;;14.40;99.90;;;;;;5100570;28;20189;-52
2023/05/26 09:45:33;;;;;;;15.60;3.83;;;14.20;99.90;;;;;;5092853;28;20690;-52
2023/05/26 09:48:02;;;;;;;13.10;3.50;;;14.00;99.90;;;;;;5070793;28;20205;-53
2023/05/26 09:50:31;;;;;;;13.93;4.37;;;14.10;99.90;;;;;;5096025;28;20194;-53
2023/05/26 09:53:01;;;;;;;12.20;3.47;;;14.20;99.90;;;;;;5107296;28;20569;-49
2023/05/26 09:55:28;;;;;;;12.93;3.87;;;14.20;99.90;;;;;;5102476;28;20262;-52
2023/05/26 09:57:58;;;;;;;12.30;3.60;;;14.40;99.90;;;;;;5106192;28;20197;-53
2023/05/26 10:00:26;;;;;;;8.53;3.07;;;14.60;99.90;;;;;;5095069;28;20221;-52
2023/05/26 10:02:54;;;;;;;11.40;3.50;;;14.60;99.90;;;;;;5093121;28;20205;-50
2023/05/26 10:05:24;;;;;;;15.00;3.30;;;14.70;99.70;;;;;;5080789;28;20710;-51
2023/05/26 10:07:53;;;;;;;14.40;3.67;;;14.80;99.90;;;;;;5105425;28;20193;-51
2023/05/26 10:10:20;;;;;;;11.10;3.43;;;14.80;99.30;;;;;;5105487;28;20327;-52
2023/05/26 10:12:47;;;;;;;13.90;4.37;;;14.70;99.60;;;;;;5103750;28;20196;-49
2023/05/26 10:15:15;;;;;;;13.70;3.97;;;14.70;99.60;;;;;;5094122;28;20228;-50
2023/05/26 10:17:43;;;;;;;13.40;3.37;;;14.70;99.70;;;;;;5087694;28;20288;-52
2023/05/26 10:20:10;;;;;;;11.20;3.40;;;14.80;99.50;;;;;;5086252;28;20201;-52
2023/05/26 10:22:47;;;;;;;14.57;4.37;;;14.80;99.00;;;;;;5102877;28;20264;-50
2023/05/26 10:25:23;;;;;;;10.30;3.73;;;14.80;99.20;;;;;;5105672;28;20212;-54
2023/05/26 10:27:57;;;;;;;12.63;3.53;;;15.00;99.00;;;;;;5103384;28;20189;-51
2023/05/26 10:30:27;;;;;;;15.63;3.90;;;14.80;98.10;;;;;;5087626;28;20200;-50
2023/05/26 10:32:55;;;;;;;8.97;3.10;;;14.90;99.30;;;;;;5101362;28;20197;-51
2023/05/26 10:35:24;;;;;;;14.37;4.17;;;15.10;99.10;;;;;;5084331;27;20737;-47
2023/05/26 10:37:55;;;;;;;11.50;3.53;;;15.10;99.70;;;;;;5103229;28;20604;-52
2023/05/26 10:40:27;;;;;;;7.13;3.40;;;15.00;99.90;;;;;;5096639;28;20212;-54
2023/05/26 10:42:59;;;;;;;10.47;4.10;;;15.10;99.90;;;;;;5100739;28;20193;-55
2023/05/26 10:45:30;;;;;;;10.37;3.40;;;15.10;98.50;;;;;;5081341;28;20603;-55
2023/05/26 10:47:58;;;;;;;12.13;4.27;;;15.00;98.60;;;;;;5098503;28;20200;-48
2023/05/26 10:50:25;;;;;;;9.23;3.33;;;14.90;98.80;;;;;;5083461;28;20208;-55
2023/05/26 10:52:55;;;;;;;10.73;4.40;;;15.10;98.80;;;;;;5105233;28;20234;-48
2023/05/26 10:55:29;;;;;;;11.07;3.80;;;15.10;98.30;;;;;;5103606;28;20749;-54
2023/05/26 10:58:32;;;;;;;15.10;4.53;;;15.30;98.90;;;;;;5097988;28;20217;-50
2023/05/26 11:01:03;;;;;;;9.13;3.60;;;15.30;96.90;;;;;;5083542;28;20209;-47
2023/05/26 11:03:37;;;;;;;10.83;3.50;;;15.10;98.50;;;;;;5101754;28;20276;-55
2023/05/26 11:06:05;;;;;;;10.87;4.00;;;15.30;98.00;;;;;;5087246;28;20201;-47
2023/05/26 11:08:40;;;;;;;7.13;4.00;;;15.40;98.40;;;;;;5101270;28;20208;-49
2023/05/26 11:11:09;;;;;;;10.33;4.87;;;15.40;98.20;;;;;;5100612;28;20188;-51
2023/05/26 11:13:47;;;;;;;10.27;4.33;;;15.30;98.20;;;;;;5081994;28;20310;-51
2023/05/26 11:16:20;;;;;;;13.40;5.10;;;15.20;98.10;;;;;;5097268;28;20231;-55
2023/05/26 11:18:50;;;;;;;10.87;4.47;;;15.10;98.30;;;;;;5100769;28;20265;-51
2023/05/26 11:21:18;;;;;;;12.83;4.03;;;15.20;98.10;;;;;;5096717;28;20201;-55
2023/05/26 11:23:46;;;;;;;10.00;4.17;;;15.10;98.20;;;;;;5092845;28;20197;-52
2023/05/26 11:26:14;;;;;;;14.87;4.63;;;15.10;98.40;;;;;;5096515;27;20543;-56
2023/05/26 11:28:43;;;;;;;13.90;4.60;;;15.10;98.50;;;;;;5097989;28;20182;-47
2023/05/26 11:31:15;;;;;;;11.10;4.03;;;15.00;98.70;;;;;;5093052;28;20198;-55
2023/05/26 11:33:45;;;;;;;13.93;4.33;;;15.10;99.50;;;;;;5097108;28;20197;-47
2023/05/26 11:36:14;;;;;;;14.87;4.70;;;15.10;99.60;;;;;;5102581;28;20666;-56
2023/05/26 11:38:42;;;;;;;10.87;3.73;;;15.20;99.80;;;;;;5085202;28;20243;-53
2023/05/26 11:41:11;;;;;;;11.20;4.17;;;15.20;99.40;;;;;;5097309;28;20230;-53
2023/05/26 11:43:39;;;;;;;8.67;3.57;;;15.30;99.10;;;;;;5099043;28;20200;-50
2023/05/26 11:46:08;;;;;;;10.80;3.50;;;15.40;98.80;;;;;;5105269;28;20242;-54
2023/05/26 11:48:39;;;;;;;13.03;3.60;;;15.40;98.60;;;;;;5070789;28;20209;-52
2023/05/26 11:51:12;;;;;;;14.43;3.77;;;15.40;98.10;;;;;;5102753;28;20186;-53
2023/05/26 11:53:41;;;;;;;9.10;3.60;;;15.40;97.60;;;;;;5070269;28;20235;-49
2023/05/26 11:56:10;;;;;;;13.60;4.20;;;15.40;97.70;;;;;;5100177;28;20204;-49
2023/05/26 11:58:41;;;;;;;14.93;4.60;;;13.70;99.90;;;;;;5100211;28;20185;-52
2023/05/26 12:01:09;;;;;;;14.30;3.70;;;;;;;;;;5087864;28;20309;-52
2023/05/26 12:03:40;;;;;;;10.03;4.10;;;15.70;97.50;;;;;;5087239;28;20276;-47
2023/05/26 12:06:11;;;;;;;12.50;3.40;;;15.80;98.00;;;;;;5093390;28;20177;-54
2023/05/26 12:08:46;;;;;;;12.77;4.57;;;15.80;97.90;;;;;;5074102;28;20216;-54
2023/05/26 12:11:18;;;;;;;13.20;3.57;;;15.80;96.80;;;;;;5102650;28;20902;-52
2023/05/26 12:13:45;;;;;;;11.63;3.50;;;15.60;97.70;;;;;;5099804;28;20255;-54
2023/05/26 12:16:28;;;;;;;14.90;3.60;;;15.70;97.70;;;;;;5102443;28;20918;-50
2023/05/26 12:18:57;;;;;;;11.53;4.10;;;15.80;97.40;;;;;;5091424;28;20551;-55
2023/05/26 12:21:27;;;;;;;8.30;3.30;;;15.90;97.80;;;;;;5096355;28;20213;-51
2023/05/26 12:23:56;;;;;;;13.10;3.77;;;15.90;97.90;;;;;;5080704;28;20189;-57
2023/05/26 12:26:25;;;;;;;16.83;4.23;;;16.10;98.00;;;;;;5103066;28;20831;-49
2023/05/26 12:29:07;;;;;;;9.77;3.60;;;16.20;97.40;;;;;;5099913;28;20613;-57
2023/05/26 12:31:41;;;;;;;8.97;3.07;;;16.30;97.00;;;;;;5103284;28;20536;-47
2023/05/26 12:34:10;;;;;;;9.37;3.40;;;16.50;97.00;;;;;;5081839;28;20339;-53
2023/05/26 12:36:38;;;;;;;15.77;3.53;;;16.40;96.70;;;;;;5096233;28;20242;-54
2023/05/26 12:39:06;;;;;;;10.33;3.33;;;16.40;96.60;;;;;;5080199;28;20284;-51
2023/05/26 12:41:33;;;;;;;10.83;3.70;;;16.60;96.40;;;;;;5101077;28;20308;-48
2023/05/26 12:44:01;;;;;;;10.73;3.97;;;16.50;96.00;;;;;;5097160;28;20229;-49
2023/05/26 12:46:28;;;;;;;14.23;4.40;;;16.50;95.80;;;;;;5103645;28;20300;-52
2023/05/26 12:48:55;;;;;;;10.33;3.43;;;16.50;95.90;;;;;;5086003;28;20197;-57
2023/05/26 12:51:22;;;;;;;12.87;3.67;;;16.50;96.10;;;;;;5098407;28;20197;-51
2023/05/26 12:53:50;;;;;;;9.97;3.93;;;16.50;96.10;;;;;;5101622;28;20197;-57
2023/05/26 12:56:18;;;;;;;7.37;2.97;;;16.70;95.60;;;;;;5084112;28;20201;-53